Time;durP1;ratioP1;P1;durP2;ratioP2;P2;SDS_P1;SDS_P2;PMS_P1;PMS_P2;Temp;Humidity;BMP_temperature;BMP_pressure;BME280_temperature;BME280_humidity;BME280_pressure;Samples;Min_cycle;Max_cycle;Signal;HPM_P1;HPM_P2
2023/08/31 00:00:52;;;;;;;1.98;1.48;;;;;;;;;;5022211;28;20059;-61
2023/08/31 00:03:20;;;;;;;2.88;1.45;;;;;;;;;;5023087;28;20051;-60
2023/08/31 00:05:51;;;;;;;2.90;1.63;;;;;;;;;;5024025;28;20154;-59
2023/08/31 00:08:22;;;;;;;3.00;1.80;;;;;;;;;;5023690;28;20444;-60
2023/08/31 00:10:56;;;;;;;5.07;2.00;;;;;;;;;;5023591;28;20049;-58
2023/08/31 00:13:26;;;;;;;4.15;1.95;;;;;;;;;;5021574;28;20084;-60
2023/08/31 00:15:57;;;;;;;4.03;1.70;;;;;;;;;;5022416;28;20123;-59
2023/08/31 00:18:26;;;;;;;5.60;1.70;;;;;;;;;;5024912;28;20042;-59
2023/08/31 00:20:56;;;;;;;2.72;1.40;;;;;;;;;;5020171;28;20045;-59
2023/08/31 00:23:24;;;;;;;2.50;1.40;;;;;;;;;;5018369;28;20143;-60
2023/08/31 00:25:53;;;;;;;3.15;1.27;;;;;;;;;;5023445;28;20135;-61
2023/08/31 00:28:22;;;;;;;2.40;1.52;;;;;;;;;;5020394;28;20148;-60
2023/08/31 00:30:51;;;;;;;2.20;1.35;;;;;;;;;;5019098;28;20782;-63
2023/08/31 00:33:20;;;;;;;3.80;1.50;;;;;;;;;;5021416;28;20080;-59
2023/08/31 00:35:48;;;;;;;3.08;1.50;;;;;;;;;;5022169;28;20042;-59
2023/08/31 00:38:19;;;;;;;3.80;1.25;;;;;;;;;;5023859;28;20469;-60
2023/08/31 00:40:47;;;;;;;1.45;1.13;;;;;;;;;;5019012;28;20053;-59
2023/08/31 00:43:17;;;;;;;1.50;1.00;;;;;;;;;;5023259;28;20068;-59
2023/08/31 00:45:46;;;;;;;1.73;1.23;;;;;;;;;;5023416;28;20103;-58
2023/08/31 00:48:16;;;;;;;2.90;1.40;;;;;;;;;;5023467;28;20122;-60
2023/08/31 00:50:45;;;;;;;4.25;1.23;;;;;;;;;;5020759;28;20046;-61
2023/08/31 00:53:14;;;;;;;2.80;1.45;;;;;;;;;;5022295;28;20045;-59
2023/08/31 00:55:45;;;;;;;2.03;1.40;;;;;;;;;;5020758;28;20049;-59
2023/08/31 00:58:14;;;;;;;1.60;1.20;;;;;;;;;;5021640;28;20104;-63
2023/08/31 01:00:48;;;;;;;1.88;1.10;;;;;;;;;;5021323;28;20050;-61
2023/08/31 01:03:22;;;;;;;4.30;1.00;;;;;;;;;;5005394;23;20054;-67
2023/08/31 01:05:54;;;;;;;3.10;1.30;;;;;;;;;;4981524;28;20053;-66
2023/08/31 01:08:29;;;;;;;2.40;1.10;;;;;;;;;;4983717;28;20050;-70
2023/08/31 01:10:57;;;;;;;;;;;;;;;;;;4983577;28;20057;-67
2023/08/31 01:13:28;;;;;;;3.63;1.33;;;;;;;;;;4982405;28;19922;-67
2023/08/31 01:15:58;;;;;;;2.42;1.58;;;;;;;;;;4983838;28;20089;-65
2023/08/31 01:18:28;;;;;;;4.72;1.30;;;;;;;;;;4981803;28;20433;-66
2023/08/31 01:21:00;;;;;;;2.17;1.48;;;;;;;;;;4981507;28;20102;-73
2023/08/31 01:23:31;;;;;;;1.55;1.30;;;;;;;;;;4982281;28;20109;-65
2023/08/31 01:26:02;;;;;;;7.13;1.50;;;;;;;;;;4982183;28;20050;-67
2023/08/31 01:28:31;;;;;;;4.38;1.50;;;;;;;;;;4985184;28;20046;-68
2023/08/31 01:31:05;;;;;;;4.22;1.48;;;;;;;;;;4982570;28;20074;-68
2023/08/31 01:33:34;;;;;;;2.00;1.50;;;;;;;;;;4983379;28;20053;-74
2023/08/31 01:36:04;;;;;;;2.83;1.35;;;;;;;;;;4982156;28;20053;-65
2023/08/31 01:38:34;;;;;;;3.45;1.70;;;;;;;;;;4982214;28;20506;-66
2023/08/31 01:41:06;;;;;;;1.35;1.10;;;;;;;;;;4996055;28;20402;-68
2023/08/31 01:43:35;;;;;;;2.83;1.67;;;;;;;;;;5001672;28;20042;-66
2023/08/31 01:46:03;;;;;;;1.80;1.40;;;;;;;;;;5002671;28;20881;-66
2023/08/31 01:48:32;;;;;;;7.30;1.50;;;;;;;;;;5001441;28;20042;-68
2023/08/31 01:51:01;;;;;;;2.85;1.50;;;;;;;;;;5004980;28;20175;-69
2023/08/31 01:53:29;;;;;;;2.53;1.40;;;;;;;;;;5023135;28;20049;-68
2023/08/31 01:55:57;;;;;;;2.17;1.30;;;;;;;;;;5020770;28;20054;-65
2023/08/31 01:58:27;;;;;;;2.10;1.48;;;;;;;;;;5023882;28;20045;-65
2023/08/31 02:00:56;;;;;;;3.63;1.38;;;;;;;;;;5021532;28;20465;-65
2023/08/31 02:03:25;;;;;;;1.50;1.15;;;;;;;;;;5019441;28;20058;-64
2023/08/31 02:05:53;;;;;;;2.25;1.50;;;;;;;;;;5023805;28;20157;-67
2023/08/31 02:08:22;;;;;;;2.13;1.27;;;;;;;;;;5023029;28;20572;-65
2023/08/31 02:10:50;;;;;;;1.52;1.40;;;;;;;;;;5015888;28;20108;-67
2023/08/31 02:13:19;;;;;;;2.95;1.38;;;;;;;;;;5022388;28;20062;-68
2023/08/31 02:15:52;;;;;;;2.38;1.40;;;;;;;;;;5020534;28;20505;-66
2023/08/31 02:18:21;;;;;;;2.50;1.40;;;;;;;;;;5018511;28;20056;-68
2023/08/31 02:20:49;;;;;;;3.80;1.55;;;;;;;;;;5022401;28;20053;-67
2023/08/31 02:23:18;;;;;;;2.58;1.45;;;;;;;;;;5017867;28;20092;-65
2023/08/31 02:25:46;;;;;;;2.55;1.50;;;;;;;;;;5020958;28;20533;-68
2023/08/31 02:28:15;;;;;;;2.47;1.50;;;;;;;;;;5019956;28;20136;-65
2023/08/31 02:30:45;;;;;;;3.00;1.90;;;;;;;;;;5021401;28;20478;-66
2023/08/31 02:33:15;;;;;;;3.58;1.40;;;;;;;;;;5021473;28;20350;-65
2023/08/31 02:35:43;;;;;;;1.80;1.42;;;;;;;;;;5021579;28;20060;-66
2023/08/31 02:38:12;;;;;;;1.85;1.60;;;;;;;;;;5022481;28;20099;-66
2023/08/31 02:40:40;;;;;;;4.75;1.75;;;;;;;;;;5020860;28;20262;-66
2023/08/31 02:43:08;;;;;;;2.92;1.80;;;;;;;;;;5022925;28;20513;-68
2023/08/31 02:45:37;;;;;;;2.53;1.63;;;;;;;;;;5020547;28;20065;-64
2023/08/31 02:48:08;;;;;;;3.10;1.73;;;;;;;;;;5022045;28;20127;-69
2023/08/31 02:50:38;;;;;;;3.80;1.75;;;;;;;;;;5025935;28;20055;-64
2023/08/31 02:53:06;;;;;;;3.70;1.55;;;;;;;;;;5023566;28;20262;-67
2023/08/31 02:55:35;;;;;;;2.05;1.50;;;;;;;;;;5025334;28;20053;-63
2023/08/31 02:58:03;;;;;;;5.78;1.88;;;;;;;;;;5021325;28;20041;-64
2023/08/31 03:00:33;;;;;;;2.88;1.80;;;;;;;;;;5023074;28;20624;-64
2023/08/31 03:03:01;;;;;;;2.72;1.70;;;;;;;;;;5022232;28;20045;-66
2023/08/31 03:05:30;;;;;;;3.00;2.00;;;;;;;;;;5022348;28;20041;-71
2023/08/31 03:08:00;;;;;;;7.03;2.08;;;;;;;;;;5025633;28;20320;-63
2023/08/31 03:10:28;;;;;;;4.00;2.13;;;;;;;;;;5024617;28;20369;-64
2023/08/31 03:12:56;;;;;;;5.25;2.70;;;;;;;;;;5022167;28;20053;-73
2023/08/31 03:15:25;;;;;;;6.20;2.25;;;;;;;;;;5022849;28;20076;-65
2023/08/31 03:17:54;;;;;;;4.05;2.22;;;;;;;;;;5022619;28;20066;-64
2023/08/31 03:20:24;;;;;;;6.80;2.20;;;;;;;;;;5025814;28;20377;-64
2023/08/31 03:22:53;;;;;;;4.97;2.17;;;;;;;;;;5025332;28;20053;-64
2023/08/31 03:25:24;;;;;;;3.53;1.90;;;;;;;;;;5023612;28;20069;-63
2023/08/31 03:27:52;;;;;;;3.33;1.88;;;;;;;;;;5021997;28;20125;-65
2023/08/31 03:30:21;;;;;;;3.85;2.20;;;;;;;;;;5023136;28;20049;-70
2023/08/31 03:32:49;;;;;;;3.38;2.17;;;;;;;;;;5023348;28;20491;-65
2023/08/31 03:35:18;;;;;;;3.03;2.00;;;;;;;;;;5022551;28;20053;-68
2023/08/31 03:37:48;;;;;;;4.88;2.10;;;;;;;;;;5025683;28;20545;-64
2023/08/31 03:40:16;;;;;;;3.75;2.10;;;;;;;;;;5022675;28;20586;-66
2023/08/31 03:42:46;;;;;;;4.00;2.15;;;;;;;;;;5022600;28;20069;-64
2023/08/31 03:45:15;;;;;;;3.63;2.22;;;;;;;;;;5025299;28;20085;-65
2023/08/31 03:47:43;;;;;;;6.63;2.28;;;;;;;;;;5020919;28;20124;-65
2023/08/31 03:50:11;;;;;;;2.60;2.00;;;;;;;;;;5024045;28;20045;-64
2023/08/31 03:52:40;;;;;;;3.40;2.35;;;;;;;;;;5022915;28;20556;-63
2023/08/31 03:55:08;;;;;;;6.93;2.30;;;;;;;;;;5024786;28;20049;-63
2023/08/31 03:57:37;;;;;;;2.83;1.90;;;;;;;;;;5023067;28;20045;-64
2023/08/31 04:00:08;;;;;;;3.60;2.40;;;;;;;;;;5022722;28;20510;-62
2023/08/31 04:02:37;;;;;;;4.45;2.30;;;;;;;;;;5024196;28;20063;-65
2023/08/31 04:05:08;;;;;;;8.23;2.35;;;;;;;;;;5021237;28;20124;-66
2023/08/31 04:07:37;;;;;;;4.20;1.98;;;;;;;;;;5023696;28;20041;-66
2023/08/31 04:10:05;;;;;;;3.13;1.98;;;;;;;;;;5022717;28;20073;-63
2023/08/31 04:12:34;;;;;;;3.47;1.92;;;;;;;;;;5023596;28;20077;-63
2023/08/31 04:15:04;;;;;;;3.78;1.88;;;;;;;;;;5018350;28;20103;-63
2023/08/31 04:17:34;;;;;;;3.53;2.03;;;;;;;;;;5021379;28;20437;-66
2023/08/31 04:20:05;;;;;;;3.38;1.83;;;;;;;;;;5020389;28;20111;-68
2023/08/31 04:22:34;;;;;;;2.63;1.90;;;;;;;;;;5021762;28;20045;-63
2023/08/31 04:25:02;;;;;;;2.05;1.50;;;;;;;;;;5021102;28;20139;-63
2023/08/31 04:27:31;;;;;;;7.40;2.22;;;;;;;;;;5024374;28;20041;-62
2023/08/31 04:30:00;;;;;;;2.58;1.70;;;;;;;;;;5022300;28;20041;-63
2023/08/31 04:32:29;;;;;;;2.65;1.60;;;;;;;;;;5024333;28;20158;-66
2023/08/31 04:34:59;;;;;;;2.58;1.77;;;;;;;;;;5020392;28;20435;-65
2023/08/31 04:37:27;;;;;;;4.35;1.83;;;;;;;;;;5020287;28;20057;-62
2023/08/31 04:39:55;;;;;;;3.58;1.98;;;;;;;;;;5021629;28;20092;-64
2023/08/31 04:42:24;;;;;;;1.88;1.38;;;;;;;;;;5019580;28;20042;-63
2023/08/31 04:44:52;;;;;;;3.38;2.13;;;;;;;;;;5022561;28;20046;-65
2023/08/31 04:47:20;;;;;;;4.75;2.05;;;;;;;;;;5022169;28;20041;-63
2023/08/31 04:49:49;;;;;;;6.32;2.20;;;;;;;;;;5021406;28;20521;-68
2023/08/31 04:52:19;;;;;;;4.72;2.03;;;;;;;;;;5023088;28;20075;-63
2023/08/31 04:54:47;;;;;;;3.15;2.00;;;;;;;;;;5020801;28;20084;-69
2023/08/31 04:57:15;;;;;;;3.35;2.13;;;;;;;;;;5023279;28;20068;-69
2023/08/31 04:59:44;;;;;;;3.17;1.73;;;;;;;;;;5022682;28;20041;-66
2023/08/31 05:02:12;;;;;;;3.38;1.90;;;;;;;;;;5019328;28;20080;-63
2023/08/31 05:04:40;;;;;;;3.85;1.77;;;;;;;;;;5020162;28;20068;-64
2023/08/31 05:07:08;;;;;;;3.42;1.83;;;;;;;;;;5022336;28;20498;-67
2023/08/31 05:09:38;;;;;;;3.42;1.92;;;;;;;;;;5018457;28;20417;-62
2023/08/31 05:12:07;;;;;;;3.03;2.03;;;;;;;;;;5023285;28;20056;-62
2023/08/31 05:14:39;;;;;;;6.68;1.90;;;;;;;;;;5021421;28;20509;-62
2023/08/31 05:17:08;;;;;;;3.08;2.00;;;;;;;;;;5021203;28;20490;-62
2023/08/31 05:19:36;;;;;;;2.90;1.48;;;;;;;;;;5020971;28;20045;-63
2023/08/31 05:22:04;;;;;;;3.55;2.00;;;;;;;;;;5001831;28;20046;-62
2023/08/31 05:24:33;;;;;;;3.08;1.80;;;;;;;;;;5001243;28;20853;-64
2023/08/31 05:27:03;;;;;;;3.22;2.10;;;;;;;;;;5002405;28;20053;-62
2023/08/31 05:29:31;;;;;;;3.00;1.48;;;;;;;;;;4998077;28;20127;-62
2023/08/31 05:32:00;;;;;;;2.50;1.80;;;;;;;;;;5017140;28;20659;-64
2023/08/31 05:34:28;;;;;;;4.30;2.00;;;;;;;;;;5019980;28;20049;-63
2023/08/31 05:36:57;;;;;;;2.47;1.70;;;;;;;;;;5019102;28;20069;-65
2023/08/31 05:39:25;;;;;;;6.05;1.95;;;;;;;;;;5016180;28;20381;-60
2023/08/31 05:41:54;;;;;;;3.83;2.10;;;;;;;;;;5018700;28;20566;-64
2023/08/31 05:44:24;;;;;;;3.42;1.80;;;;;;;;;;5018567;28;20054;-69
2023/08/31 05:46:52;;;;;;;3.83;1.58;;;;;;;;;;5020890;28;20099;-62
2023/08/31 05:49:20;;;;;;;3.63;1.48;;;;;;;;;;5019242;28;20164;-61
2023/08/31 05:51:49;;;;;;;3.22;1.90;;;;;;;;;;5018236;28;20577;-64
2023/08/31 05:54:17;;;;;;;3.78;1.60;;;;;;;;;;5019417;28;20147;-65
2023/08/31 05:56:46;;;;;;;3.45;1.80;;;;;;;;;;5016549;28;20115;-66
2023/08/31 05:59:15;;;;;;;3.60;1.90;;;;;;;;;;5016610;28;20057;-64
2023/08/31 06:01:45;;;;;;;2.40;1.55;;;;;;;;;;5019343;28;20099;-63
2023/08/31 06:04:13;;;;;;;4.10;1.75;;;;;;;;;;5017821;28;20052;-61
2023/08/31 06:06:41;;;;;;;3.92;2.00;;;;;;;;;;5018519;28;20049;-64
2023/08/31 06:09:10;;;;;;;5.35;1.85;;;;;;;;;;5016730;28;20058;-64
2023/08/31 06:11:39;;;;;;;4.03;1.40;;;;;;;;;;5000687;28;20049;-62
2023/08/31 06:14:07;;;;;;;3.30;1.63;;;;;;;;;;4999801;28;20069;-65
2023/08/31 06:16:36;;;;;;;2.47;1.48;;;;;;;;;;4997914;28;20168;-63
2023/08/31 06:19:05;;;;;;;3.92;2.08;;;;;;;;;;5000144;28;20495;-64
2023/08/31 06:21:35;;;;;;;3.53;1.58;;;;;;;;;;5002476;28;20050;-63
2023/08/31 06:24:05;;;;;;;3.58;1.63;;;;;;;;;;5002715;28;20054;-65
2023/08/31 06:26:33;;;;;;;2.72;1.77;;;;;;;;;;5001874;28;20135;-69
2023/08/31 06:29:03;;;;;;;4.57;1.65;;;;;;;;;;5000482;28;20133;-62
2023/08/31 06:31:31;;;;;;;2.33;1.58;;;;;;;;;;5003379;28;20322;-61
2023/08/31 06:34:00;;;;;;;3.25;1.85;;;;;;;;;;5002146;28;20885;-63
2023/08/31 06:36:29;;;;;;;3.30;1.65;;;;;;;;;;5002728;28;20742;-64
2023/08/31 06:38:58;;;;;;;2.35;1.55;;;;;;;;;;5002428;28;20080;-61
2023/08/31 06:41:26;;;;;;;2.03;1.55;;;;;;;;;;5017116;28;20053;-64
2023/08/31 06:43:55;;;;;;;5.78;2.00;;;;;;;;;;5022761;28;20073;-64
2023/08/31 06:46:23;;;;;;;2.22;1.40;;;;;;;;;;5022674;28;20041;-67
2023/08/31 06:48:53;;;;;;;2.10;1.50;;;;;;;;;;5021891;28;20140;-63
2023/08/31 06:51:21;;;;;;;3.00;1.70;;;;;;;;;;5022795;28;20387;-62
2023/08/31 06:53:53;;;;;;;2.58;1.50;;;;;;;;;;5021286;28;20060;-63
2023/08/31 06:56:22;;;;;;;4.10;1.90;;;;;;;;;;5022077;28;20675;-64
2023/08/31 06:58:50;;;;;;;3.25;1.65;;;;;;;;;;5022170;28;20053;-63
2023/08/31 07:01:19;;;;;;;3.40;1.95;;;;;;;;;;5023575;28;20069;-62
2023/08/31 07:03:47;;;;;;;3.88;1.70;;;;;;;;;;5021040;28;20403;-64
2023/08/31 07:06:15;;;;;;;2.75;1.48;;;;;;;;;;5021224;28;20442;-61
2023/08/31 07:08:45;;;;;;;3.30;1.88;;;;;;;;;;5020780;28;20053;-64
2023/08/31 07:11:15;;;;;;;4.88;1.90;;;;;;;;;;5020607;28;20498;-63
2023/08/31 07:13:43;;;;;;;2.85;1.75;;;;;;;;;;5020012;28;20422;-64
2023/08/31 07:16:12;;;;;;;4.07;1.48;;;;;;;;;;5020128;28;20042;-64
2023/08/31 07:18:40;;;;;;;3.25;1.40;;;;;;;;;;5017819;28;20951;-63
2023/08/31 07:21:09;;;;;;;5.60;1.60;;;;;;;;;;5023392;28;20065;-65
2023/08/31 07:23:40;;;;;;;1.85;1.38;;;;;;;;;;5021924;28;20562;-62
2023/08/31 07:26:08;;;;;;;2.92;1.70;;;;;;;;;;5018312;28;20064;-65
2023/08/31 07:28:38;;;;;;;2.22;1.70;;;;;;;;;;5021776;28;20049;-64
2023/08/31 07:31:07;;;;;;;2.95;1.75;;;;;;;;;;5020424;28;20057;-64
2023/08/31 07:33:36;;;;;;;2.70;1.60;;;;;;;;;;5020293;28;20045;-63
2023/08/31 07:36:06;;;;;;;4.10;1.50;;;;;;;;;;5023156;28;20478;-65
2023/08/31 07:38:34;;;;;;;3.50;1.60;;;;;;;;;;5020242;28;20045;-63
2023/08/31 07:41:04;;;;;;;2.47;1.30;;;;;;;;;;5020608;28;20045;-64
2023/08/31 07:43:32;;;;;;;4.32;1.95;;;;;;;;;;5026042;28;20045;-62
2023/08/31 07:46:02;;;;;;;3.90;1.58;;;;;;;;;;5025782;28;20053;-62
2023/08/31 07:48:30;;;;;;;4.50;1.50;;;;;;;;;;5023495;28;20478;-61
2023/08/31 07:50:59;;;;;;;3.53;1.70;;;;;;;;;;5021218;28;20718;-61
2023/08/31 07:53:27;;;;;;;3.35;1.50;;;;;;;;;;5022859;28;20054;-62
2023/08/31 07:55:57;;;;;;;7.85;1.50;;;;;;;;;;5023528;28;20294;-61
2023/08/31 07:58:26;;;;;;;2.63;1.75;;;;;;;;;;5025608;28;20457;-63
2023/08/31 08:00:55;;;;;;;5.47;1.33;;;;;;;;;;5023699;28;20069;-61
2023/08/31 08:03:25;;;;;;;3.22;1.63;;;;;;;;;;5022759;28;20062;-62
2023/08/31 08:05:54;;;;;;;1.75;1.17;;;;;;;;;;5025443;28;20049;-64
2023/08/31 08:08:22;;;;;;;5.97;1.52;;;;;;;;;;5024015;28;20504;-62
2023/08/31 08:10:53;;;;;;;2.13;1.42;;;;;;;;;;5017360;28;20426;-61
2023/08/31 08:13:22;;;;;;;4.20;1.17;;;;;;;;;;5019422;28;20055;-66
2023/08/31 08:15:50;;;;;;;5.60;1.70;;;;;;;;;;5019595;28;20123;-65
2023/08/31 08:18:19;;;;;;;13.45;2.90;;;;;;;;;;5017212;28;20049;-63
2023/08/31 08:20:52;;;;;;;2.15;1.30;;;;;;;;;;5020062;28;20068;-69
2023/08/31 08:23:21;;;;;;;4.43;1.30;;;;;;;;;;5021678;28;20045;-64
2023/08/31 08:25:50;;;;;;;1.42;1.27;;;;;;;;;;5020358;28;20065;-61
2023/08/31 08:28:18;;;;;;;2.55;1.40;;;;;;;;;;5018883;28;20532;-63
2023/08/31 08:30:47;;;;;;;2.28;1.45;;;;;;;;;;5018999;28;20561;-62
2023/08/31 08:33:15;;;;;;;4.45;1.40;;;;;;;;;;5019659;28;20068;-62
2023/08/31 08:35:44;;;;;;;3.42;1.70;;;;;;;;;;5016128;28;20057;-61
2023/08/31 08:38:14;;;;;;;6.53;1.75;;;;;;;;;;5020628;28;20058;-63
2023/08/31 08:40:42;;;;;;;4.43;1.55;;;;;;;;;;5018225;28;20089;-64
2023/08/31 08:43:12;;;;;;;2.72;1.63;;;;;;;;;;5017878;28;20046;-69
2023/08/31 08:45:42;;;;;;;4.03;1.50;;;;;;;;;;5018287;28;20053;-63
2023/08/31 08:48:10;;;;;;;4.63;1.50;;;;;;;;;;5018559;28;20046;-62
2023/08/31 08:50:39;;;;;;;1.92;1.25;;;;;;;;;;5018012;28;20527;-61
2023/08/31 08:53:07;;;;;;;3.17;1.50;;;;;;;;;;5019672;28;20099;-61
2023/08/31 08:55:37;;;;;;;3.75;1.60;;;;;;;;;;5019613;28;20134;-58
2023/08/31 08:58:06;;;;;;;2.17;1.27;;;;;;;;;;5012390;28;20057;-61
2023/08/31 09:00:34;;;;;;;4.20;1.33;;;;;;;;;;5016311;28;20469;-60
2023/08/31 09:03:05;;;;;;;5.18;1.70;;;;;;;;;;5019480;28;20089;-64
2023/08/31 09:05:33;;;;;;;2.53;1.27;;;;;;;;;;5016779;28;20133;-65
2023/08/31 09:08:01;;;;;;;2.58;1.30;;;;;;;;;;5020979;28;20045;-63
2023/08/31 09:10:35;;;;;;;2.40;1.63;;;;;;;;;;5021310;28;20084;-64
2023/08/31 09:13:07;;;;;;;4.28;1.50;;;;;;;;;;5019377;28;20050;-63
2023/08/31 09:15:41;;;;;;;4.55;1.60;;;;;;;;;;5021363;28;20431;-65
2023/08/31 09:18:10;;;;;;;5.55;1.98;;;;;;;;;;5024046;28;20123;-63
2023/08/31 09:20:45;;;;;;;1.70;1.08;;;;;;;;;;5018036;28;20061;-67
2023/08/31 09:23:14;;;;;;;3.15;1.42;;;;;;;;;;5019691;28;20045;-63
2023/08/31 09:25:44;;;;;;;2.67;1.20;;;;;;;;;;5019768;28;20288;-72
2023/08/31 09:28:14;;;;;;;5.10;1.42;;;;;;;;;;5021665;28;20045;-63
2023/08/31 09:30:43;;;;;;;3.63;1.50;;;;;;;;;;5008194;28;20242;-68
2023/08/31 09:33:16;;;;;;;3.63;1.38;;;;;;;;;;5003689;28;20062;-63
2023/08/31 09:35:49;;;;;;;4.55;1.50;;;;;;;;;;5003168;28;20053;-63
2023/08/31 09:38:18;;;;;;;2.22;1.15;;;;;;;;;;5002631;28;20060;-63
2023/08/31 09:40:46;;;;;;;3.30;1.27;;;;;;;;;;5001807;28;20046;-63
2023/08/31 09:43:21;;;;;;;3.53;1.58;;;;;;;;;;5003053;28;20050;-65
2023/08/31 09:45:50;;;;;;;3.30;1.83;;;;;;;;;;4998490;28;20057;-64
2023/08/31 09:48:19;;;;;;;1.30;0.90;;;;;;;;;;5005073;28;20060;-64
2023/08/31 09:50:47;;;;;;;4.03;1.48;;;;;;;;;;5003969;28;20041;-68
2023/08/31 09:53:17;;;;;;;7.80;1.77;;;;;;;;;;5003393;28;20078;-69
2023/08/31 09:55:48;;;;;;;6.05;1.30;;;;;;;;;;4999347;28;20046;-63
2023/08/31 09:58:20;;;;;;;5.45;1.70;;;;;;;;;;4999636;28;20046;-65
2023/08/31 10:00:50;;;;;;;1.95;1.23;;;;;;;;;;5001495;28;20080;-63
2023/08/31 10:03:19;;;;;;;2.85;1.20;;;;;;;;;;5001567;28;20653;-67
2023/08/31 10:05:49;;;;;;;2.53;1.33;;;;;;;;;;5000558;28;20054;-63
2023/08/31 10:08:18;;;;;;;4.38;1.60;;;;;;;;;;5002465;28;20602;-67
2023/08/31 10:10:47;;;;;;;3.55;1.40;;;;;;;;;;5000615;28;20045;-66
2023/08/31 10:13:15;;;;;;;2.75;1.30;;;;;;;;;;4999131;28;20042;-64
2023/08/31 10:15:45;;;;;;;1.98;1.17;;;;;;;;;;4997959;28;20046;-66
2023/08/31 10:18:14;;;;;;;3.80;1.20;;;;;;;;;;5004105;28;20545;-64
2023/08/31 10:20:45;;;;;;;3.60;1.23;;;;;;;;;;5001211;28;20058;-66
2023/08/31 10:23:14;;;;;;;2.05;1.58;;;;;;;;;;5001210;28;20046;-66
2023/08/31 10:26:09;;;;;;;3.92;1.17;;;;;;;;;;4999894;28;20503;-68
2023/08/31 10:28:42;;;;;;;2.40;1.17;;;;;;;;;;4968372;28;20077;-69
2023/08/31 10:31:11;;;;;;;2.33;1.17;;;;;;;;;;5003999;28;20042;-69
2023/08/31 10:33:44;;;;;;;4.05;1.23;;;;;;;;;;5003347;28;20503;-64
2023/08/31 10:36:14;;;;;;;3.00;1.05;;;;;;;;;;5003183;28;20104;-64
2023/08/31 10:38:43;;;;;;;3.00;1.48;;;;;;;;;;5001648;28;20402;-64
2023/08/31 10:41:22;;;;;;;3.15;1.40;;;;;;;;;;5011441;28;20057;-64
2023/08/31 10:43:54;;;;;;;4.20;1.08;;;;;;;;;;5020550;28;20053;-65
2023/08/31 10:46:30;;;;;;;2.78;1.20;;;;;;;;;;5019322;28;20046;-62
2023/08/31 10:49:00;;;;;;;2.25;1.00;;;;;;;;;;5020440;28;20045;-66
2023/08/31 10:51:30;;;;;;;3.92;1.27;;;;;;;;;;5019452;28;20115;-66
2023/08/31 10:54:10;;;;;;;1.35;0.98;;;;;;;;;;5021859;28;20049;-67
2023/08/31 10:57:00;;;;;;;7.65;1.42;;;;;;;;;;5018334;28;21703;-65
2023/08/31 10:59:42;;;;;;;6.43;1.17;;;;;;;;;;5013874;28;20037;-63
2023/08/31 11:02:10;;;;;;;5.15;1.58;;;;;;;;;;5016291;28;20049;-64
2023/08/31 11:07:35;;;;;;;5.38;1.75;;;;;;;;;;5075506;27;20452;-63
2023/08/31 11:10:10;;;;;;;4.45;1.80;;;;;;;;;;5051373;28;20067;-64
2023/08/31 11:12:38;;;;;;;2.60;1.65;;;;;;;;;;5021252;28;20111;-71
2023/08/31 11:15:07;;;;;;;3.78;1.88;;;;;;;;;;5020731;28;20095;-63
2023/08/31 11:17:36;;;;;;;4.95;1.80;;;;;;;;;;5018314;28;20050;-63
2023/08/31 11:20:06;;;;;;;6.05;1.77;;;;;;;;;;5026074;28;20338;-63
2023/08/31 11:22:36;;;;;;;2.90;1.77;;;;;;;;;;5037840;28;20389;-64
2023/08/31 11:25:04;;;;;;;6.15;1.63;;;;;;;;;;5038114;28;20049;-68
2023/08/31 11:27:33;;;;;;;2.22;1.70;;;;;;;;;;5040415;28;20417;-62
2023/08/31 11:30:01;;;;;;;6.82;1.77;;;;;;;;;;5038170;28;20045;-62
2023/08/31 11:32:30;;;;;;;3.88;1.70;;;;;;;;;;5039071;28;20474;-62
2023/08/31 11:34:58;;;;;;;4.05;1.70;;;;;;;;;;5038114;28;20050;-63
2023/08/31 11:37:27;;;;;;;4.07;1.52;;;;;;;;;;5036633;28;20434;-62
2023/08/31 11:39:57;;;;;;;5.53;1.98;;;;;;;;;;5035579;28;20084;-63
2023/08/31 11:42:25;;;;;;;8.05;1.80;;;;;;;;;;5016899;28;20099;-59
2023/08/31 11:44:54;;;;;;;3.75;1.75;;;;;;;;;;5018865;28;20065;-63
2023/08/31 11:47:23;;;;;;;5.22;1.58;;;;;;;;;;5016030;28;20156;-67
2023/08/31 11:49:53;;;;;;;2.30;1.40;;;;;;;;;;5020333;28;20048;-63
2023/08/31 11:52:21;;;;;;;7.07;2.17;;;;;;;;;;5034000;28;20049;-62
2023/08/31 11:54:53;;;;;;;5.60;1.40;;;;;;;;;;5033853;28;20111;-66
2023/08/31 11:57:26;;;;;;;5.72;1.85;;;;;;;;;;5031471;28;20053;-65
2023/08/31 11:59:56;;;;;;;4.88;1.50;;;;;;;;;;5030996;28;20103;-66
2023/08/31 12:02:25;;;;;;;2.75;1.33;;;;;;;;;;5030254;28;20045;-64
2023/08/31 12:04:53;;;;;;;4.88;1.85;;;;;;;;;;5032443;28;20490;-63
2023/08/31 12:07:21;;;;;;;5.75;1.95;;;;;;;;;;5032642;28;20057;-61
2023/08/31 12:09:50;;;;;;;5.82;2.70;;;;;;;;;;5030076;28;20050;-64
2023/08/31 12:12:22;;;;;;;5.78;1.70;;;;;;;;;;5032665;28;20478;-63
2023/08/31 12:14:54;;;;;;;3.80;1.65;;;;;;;;;;5029044;28;20056;-69
2023/08/31 12:17:23;;;;;;;6.57;1.60;;;;;;;;;;5027423;28;20061;-69
2023/08/31 12:19:51;;;;;;;3.47;1.40;;;;;;;;;;5023451;28;20127;-63
2023/08/31 12:22:20;;;;;;;2.53;1.25;;;;;;;;;;5018021;28;20049;-65
2023/08/31 12:24:48;;;;;;;3.35;1.17;;;;;;;;;;5019357;28;20063;-64
2023/08/31 12:27:16;;;;;;;4.43;1.48;;;;;;;;;;5022885;28;20396;-64
2023/08/31 12:29:46;;;;;;;6.30;1.63;;;;;;;;;;5023856;28;20041;-62
2023/08/31 12:32:17;;;;;;;3.17;1.40;;;;;;;;;;5018810;28;20053;-63
2023/08/31 12:34:46;;;;;;;4.35;1.42;;;;;;;;;;5019117;28;20041;-64
2023/08/31 12:37:15;;;;;;;2.08;1.42;;;;;;;;;;5021623;28;20124;-64
2023/08/31 12:39:45;;;;;;;2.92;1.40;;;;;;;;;;5017139;28;20050;-61
2023/08/31 12:42:14;;;;;;;5.38;1.73;;;;;;;;;;5020935;28;20045;-64
2023/08/31 12:44:51;;;;;;;4.43;1.40;;;;;;;;;;5014273;28;20042;-64
2023/08/31 12:47:20;;;;;;;2.17;1.17;;;;;;;;;;5018075;28;20061;-62
2023/08/31 12:49:49;;;;;;;3.50;1.30;;;;;;;;;;5019962;28;20053;-64
2023/08/31 12:52:17;;;;;;;2.45;1.20;;;;;;;;;;5020411;28;20502;-63
2023/08/31 12:54:46;;;;;;;3.03;1.48;;;;;;;;;;5008756;28;20102;-69
2023/08/31 12:57:14;;;;;;;2.78;1.52;;;;;;;;;;5013153;28;20506;-67
2023/08/31 12:59:43;;;;;;;4.72;2.28;;;;;;;;;;5015125;28;20124;-66
2023/08/31 13:02:13;;;;;;;3.75;1.98;;;;;;;;;;5018471;28;20690;-64
2023/08/31 13:04:43;;;;;;;4.15;1.30;;;;;;;;;;5019955;28;20053;-66
2023/08/31 13:07:11;;;;;;;1.48;1.17;;;;;;;;;;5013221;28;20101;-67
2023/08/31 13:09:39;;;;;;;3.67;1.25;;;;;;;;;;5018860;28;20107;-68
2023/08/31 13:12:08;;;;;;;4.57;1.40;;;;;;;;;;5013725;28;20061;-63
2023/08/31 13:14:37;;;;;;;5.15;1.40;;;;;;;;;;5013729;28;20073;-66
2023/08/31 13:17:06;;;;;;;5.50;1.40;;;;;;;;;;5014548;28;20135;-63
2023/08/31 13:19:34;;;;;;;2.70;1.33;;;;;;;;;;5014986;28;20496;-64
2023/08/31 13:22:04;;;;;;;4.68;1.25;;;;;;;;;;5016730;28;20282;-63
2023/08/31 13:24:32;;;;;;;3.88;1.10;;;;;;;;;;5015038;28;20053;-64
2023/08/31 13:27:01;;;;;;;3.10;1.40;;;;;;;;;;5014503;28;20152;-63
2023/08/31 13:29:30;;;;;;;3.90;1.52;;;;;;;;;;5019100;28;20045;-62
2023/08/31 13:31:58;;;;;;;2.15;1.00;;;;;;;;;;5017058;28;20049;-67
2023/08/31 13:34:26;;;;;;;3.03;1.63;;;;;;;;;;5018244;28;20524;-64
2023/08/31 13:36:55;;;;;;;6.53;1.40;;;;;;;;;;5019855;28;20887;-64
2023/08/31 13:39:25;;;;;;;3.38;1.52;;;;;;;;;;5015996;28;20054;-63
2023/08/31 13:41:54;;;;;;;2.13;1.23;;;;;;;;;;5012645;28;20045;-64
2023/08/31 13:44:22;;;;;;;2.35;1.30;;;;;;;;;;5013371;28;20053;-62
2023/08/31 13:46:51;;;;;;;1.85;1.10;;;;;;;;;;5013206;28;20463;-68
2023/08/31 13:49:19;;;;;;;3.25;1.45;;;;;;;;;;5014960;28;20065;-64
2023/08/31 13:51:48;;;;;;;2.30;1.20;;;;;;;;;;4997338;28;20336;-62
2023/08/31 13:54:16;;;;;;;7.05;1.70;;;;;;;;;;4993329;28;20057;-63
2023/08/31 13:56:46;;;;;;;3.90;1.45;;;;;;;;;;4993943;28;20042;-64
2023/08/31 13:59:14;;;;;;;3.63;1.27;;;;;;;;;;4996977;28;20037;-64
2023/08/31 14:01:43;;;;;;;4.10;1.52;;;;;;;;;;5011813;28;20048;-62
2023/08/31 14:04:11;;;;;;;2.75;1.35;;;;;;;;;;5013583;28;20624;-63
2023/08/31 14:06:40;;;;;;;2.75;1.05;;;;;;;;;;5011802;28;20111;-65
2023/08/31 14:09:09;;;;;;;4.38;1.27;;;;;;;;;;5012127;28;20093;-65
2023/08/31 14:11:37;;;;;;;4.38;1.40;;;;;;;;;;5014786;28;20042;-63
2023/08/31 14:14:10;;;;;;;3.35;1.40;;;;;;;;;;5018288;28;20056;-67
2023/08/31 14:16:39;;;;;;;3.47;1.30;;;;;;;;;;5016121;28;20434;-64
2023/08/31 14:19:08;;;;;;;2.25;1.08;;;;;;;;;;5010475;28;20057;-64
2023/08/31 14:21:36;;;;;;;2.40;0.90;;;;;;;;;;5008816;28;20049;-63
2023/08/31 14:24:05;;;;;;;2.78;1.10;;;;;;;;;;5013471;28;20111;-65
2023/08/31 14:26:33;;;;;;;4.55;1.35;;;;;;;;;;5012870;28;20310;-63
2023/08/31 14:29:02;;;;;;;1.98;0.90;;;;;;;;;;5010425;28;20052;-66
2023/08/31 14:31:32;;;;;;;3.72;1.20;;;;;;;;;;5010571;28;20493;-65
2023/08/31 14:34:00;;;;;;;5.25;1.33;;;;;;;;;;5013832;28;20049;-62
2023/08/31 14:36:29;;;;;;;2.60;1.25;;;;;;;;;;5010407;28;20136;-66
2023/08/31 14:38:57;;;;;;;3.53;1.10;;;;;;;;;;5008791;28;20057;-66
2023/08/31 14:41:26;;;;;;;3.83;1.27;;;;;;;;;;5009924;28;20144;-65
2023/08/31 14:43:54;;;;;;;3.83;1.42;;;;;;;;;;5010159;28;20041;-65
2023/08/31 14:46:24;;;;;;;2.33;1.35;;;;;;;;;;5012160;28;20084;-64
2023/08/31 14:48:53;;;;;;;2.78;1.30;;;;;;;;;;5010164;28;20049;-62
2023/08/31 14:51:24;;;;;;;2.67;1.20;;;;;;;;;;5011807;28;20053;-63
2023/08/31 14:53:53;;;;;;;3.55;1.30;;;;;;;;;;5019088;28;20063;-63
2023/08/31 14:56:21;;;;;;;4.07;1.27;;;;;;;;;;5016963;28;20057;-67
2023/08/31 14:58:49;;;;;;;3.13;1.52;;;;;;;;;;5015599;28;20057;-64